NZCH/CHC METAR and TAF weather

Enter ICAO airport designator
Station Type Date Time Source
NZCH METAR 2020/07/02 21:00 UTC NOAA

NZCH 022100Z AUTO 24002KT 9999 NCD M01/M02 Q1021 NOSIG


Station Type Date Time Source
NZCH Decoded METAR 2020/07/02 21:00 UTC NOAA

Christchurch, New Zealand (NZCH) 43-29S 172-33E 30M
Jul 02, 2020 - 05:00 PM EDT / 2020.07.02 2100 UTC
Wind: from the WSW (240 degrees) at 2 MPH (2 KT):0
Visibility: greater than 7 mile(s):0
Temperature: 30 F (-1 C)
Dew Point: 28 F (-2 C)
Relative Humidity: 92%
Pressure (altimeter): 30.15 in. Hg (1021 hPa)
ob: NZCH 022100Z AUTO 24002KT 9999 NCD M01/M02 Q1021 NOSIG
cycle: 21

Station Type Date Time Source
NZCH TAF 2020/07/02 18:03 UTC NOAA

TAF NZCH 021700Z 0218/0318 VRB02KT 9999 FEW025
BECMG 0301/0303 06010KT

Example: see airport list